»·PEaware :: N878SA L52-KSBA

N878SA :: L52-KSBA

FLIGHT INFORMATION

Flight Status: Arrived
Operator: Privately registered:
United States
More flights under this callsign
Pilot: Anonymous 26404 (26404)
Aircraft: CESSNA 172 SKYHAWK
(C172)
More flights by this aircraft type
Origin: L52 Oceano Co
United States
Destination: KSBA Santa Barbara Mun
United States
More flights between these airports :: More routes between these airports
Route: +
File this flight plan on PilotEdge
Remarks:
Altitude:
(Current/Filed)
3,500ft
Speed:
(Current/Filed)
0kts
Departed: 30-Sep-19 08:51 AM
Arrived: 30-Sep-19 09:32 AM
Distance/Time
Traveled:
56nm/0:40
Distance/Time
To Go:
Arrived

Flight Plot

Page will automatically refresh every two minutes.


Map Options




Map Legend


Flown Route
Filed Route
Departure Airport
Arrival Airport
Navaid (VOR, NDB)
Fix

Horizontal Profiles

Position Reports

Time Latitude Longitude Heading Altitude Ground
Speed
30-Sep-19 08:49 35.090369 -120.572012 186 3570ft 105kts
30-Sep-19 08:50 35.061241 -120.578904 193 3567ft 108kts
30-Sep-19 08:51 35.032718 -120.591501 200 3516ft 109kts
30-Sep-19 08:52 35.005899 -120.609773 209 3463ft 110kts
30-Sep-19 08:53 34.978962 -120.626670 204 3488ft 106kts
30-Sep-19 08:54 34.960294 -120.621424 90 3497ft 109kts
30-Sep-19 08:55 34.960686 -120.584040 95 3515ft 109kts
30-Sep-19 08:56 34.961647 -120.546603 92 3532ft 110kts
30-Sep-19 08:57 34.962736 -120.508968 95 3546ft 110kts
30-Sep-19 08:58 34.956110 -120.472879 117 3561ft 107kts
30-Sep-19 08:59 34.934752 -120.450723 159 3547ft 106kts
30-Sep-19 09:00 34.906173 -120.441428 176 3526ft 106kts
30-Sep-19 09:01 34.880346 -120.426550 145 3519ft 106kts
30-Sep-19 09:02 34.856805 -120.404466 144 3518ft 105kts
30-Sep-19 09:03 34.832020 -120.383726 143 3497ft 112kts
30-Sep-19 09:04 34.803801 -120.365601 135 3526ft 113kts
30-Sep-19 09:05 34.778000 -120.342730 152 3571ft 117kts
30-Sep-19 09:06 34.754652 -120.315711 125 3582ft 117kts
30-Sep-19 09:07 34.735833 -120.282356 121 3523ft 119kts
30-Sep-19 09:08 34.721379 -120.246037 108 3485ft 119kts
30-Sep-19 09:09 34.708379 -120.208765 113 3464ft 119kts
30-Sep-19 09:10 34.686631 -120.179847 171 3459ft 119kts
30-Sep-19 09:11 34.653696 -120.182126 190 3505ft 118kts
30-Sep-19 09:12 34.620709 -120.185455 185 3539ft 118kts
30-Sep-19 09:13 34.589500 -120.174937 164 3539ft 121kts
30-Sep-19 09:14 34.557450 -120.182239 208 3565ft 118kts
30-Sep-19 09:15 34.529153 -120.202400 216 3585ft 117kts
30-Sep-19 09:16 34.500662 -120.221769 186 3588ft 121kts
30-Sep-19 09:17 34.480350 -120.194683 93 3669ft 113kts
30-Sep-19 09:18 34.476480 -120.154473 96 3562ft 119kts
30-Sep-19 09:19 34.468763 -120.114786 103 3502ft 120kts
30-Sep-19 09:20 34.461603 -120.075353 93 3511ft 117kts
30-Sep-19 09:21 34.459126 -120.035714 94 3602ft 118kts
30-Sep-19 09:22 34.451986 -119.996709 104 3289ft 109kts
30-Sep-19 09:23 34.443732 -119.962557 99 2628ft 104kts
30-Sep-19 09:24 34.438089 -119.928556 94 1977ft 99kts
30-Sep-19 09:25 34.436749 -119.896112 89 1384ft 96kts
30-Sep-19 09:26 34.436688 -119.863664 91 989ft 96kts
30-Sep-19 09:27 34.416873 -119.850448 175 849ft 90kts
30-Sep-19 09:28 34.393717 -119.847259 102 740ft 80kts
30-Sep-19 09:29 34.404835 -119.833974 348 632ft 83kts
30-Sep-19 09:30 34.424834 -119.839844 344 16ft 43kts
30-Sep-19 09:31 34.426692 -119.839761 89 16ft 0kts
30-Sep-19 09:32 34.426386 -119.838205 157 16ft 8kts
30-Sep-19 09:33 34.423265 -119.837128 134 16ft 8kts
30-Sep-19 09:34 34.423249 -119.836561 187 16ft 0kts
30-Sep-19 09:35 34.394797 -119.849359 136 748ft 82kts
30-Sep-19 09:36 34.424064 -119.839592 344 16ft 48kts
30-Sep-19 09:37 34.399672 -119.832704 343 707ft 85kts
30-Sep-19 09:38 34.425397 -119.840003 347 16ft 39kts
30-Sep-19 09:39 34.423249 -119.836561 187 16ft 0kts
30-Sep-19 09:40 34.423249 -119.836561 187 16ft 0kts
30-Sep-19 09:41 34.423249 -119.836561 187 16ft 0kts
30-Sep-19 09:42 34.423249 -119.836561 187 16ft 0kts
30-Sep-19 09:43 34.423249 -119.836561 187 16ft 0kts
30-Sep-19 09:44 34.423249 -119.836561 187 16ft 0kts
30-Sep-19 09:45 34.423249 -119.836561 187 16ft 0kts

Navigation Log

Ident Type
Flight plan parsing failed, navigation log unavailable